createdAt,value
2024-03-15T00:01:08.897Z,14.89
2024-03-15T00:03:35.493Z,15.01
2024-03-15T00:06:02.223Z,14.73
2024-03-15T00:08:28.883Z,14.83
2024-03-15T00:10:55.595Z,14.72
2024-03-15T00:13:22.229Z,14.74
2024-03-15T00:15:48.940Z,14.72
2024-03-15T00:18:15.696Z,14.68
2024-03-15T00:20:42.320Z,14.54
2024-03-15T00:23:09.183Z,14.63
2024-03-15T00:25:36.179Z,14.54
2024-03-15T00:28:02.854Z,14.47
2024-03-15T00:30:29.477Z,14.52
2024-03-15T00:32:56.096Z,14.36
2024-03-15T00:35:22.672Z,14.38
2024-03-15T00:37:49.234Z,14.27
2024-03-15T00:40:15.808Z,14.38
2024-03-15T00:42:42.495Z,14.33
2024-03-15T00:45:09.324Z,14.42
2024-03-15T00:47:35.985Z,14.42
2024-03-15T00:50:02.597Z,14.43
2024-03-15T00:52:29.193Z,14.40
2024-03-15T00:54:55.758Z,14.39
2024-03-15T00:57:22.369Z,14.41
2024-03-15T00:59:48.955Z,14.55
2024-03-15T01:02:15.510Z,14.52
2024-03-15T01:04:42.120Z,14.43
2024-03-15T01:07:08.697Z,14.54
2024-03-15T01:09:35.311Z,14.60
2024-03-15T01:12:01.956Z,14.68
2024-03-15T01:14:28.544Z,14.77
2024-03-15T01:16:55.136Z,14.68
2024-03-15T01:19:21.764Z,14.74
2024-03-15T01:21:48.395Z,14.80
2024-03-15T01:24:15.058Z,14.86
2024-03-15T01:26:41.661Z,14.79
2024-03-15T01:29:08.240Z,14.79
2024-03-15T01:31:34.784Z,14.83
2024-03-15T01:34:01.379Z,15.05
2024-03-15T01:36:27.968Z,14.94
2024-03-15T01:38:54.675Z,14.90
2024-03-15T01:41:21.273Z,14.85
2024-03-15T01:43:47.837Z,14.88
2024-03-15T01:46:14.422Z,14.96
2024-03-15T01:48:41.031Z,14.83
2024-03-15T01:51:07.644Z,14.86
2024-03-15T01:53:37.012Z,14.86
2024-03-15T01:56:03.897Z,14.84
2024-03-15T01:58:30.494Z,14.85
2024-03-15T02:00:57.112Z,14.97
2024-03-15T02:03:23.942Z,14.81
2024-03-15T02:05:50.533Z,14.86
2024-03-15T02:08:17.124Z,14.98
2024-03-15T02:10:43.721Z,14.82
2024-03-15T02:13:10.309Z,14.95
2024-03-15T02:15:36.904Z,14.95
2024-03-15T02:18:03.539Z,14.98
2024-03-15T02:20:30.187Z,15.00
2024-03-15T02:22:56.973Z,14.90
2024-03-15T02:25:23.573Z,14.99
2024-03-15T02:27:50.272Z,15.00
2024-03-15T02:30:18.751Z,15.02
2024-03-15T02:32:45.497Z,15.10
2024-03-15T02:35:20.046Z,15.05
2024-03-15T02:37:51.670Z,15.03
2024-03-15T02:40:18.283Z,15.16
2024-03-15T02:42:44.991Z,15.09
2024-03-15T02:45:11.722Z,15.04
2024-03-15T02:47:38.364Z,14.99
2024-03-15T02:50:04.949Z,15.04
2024-03-15T02:52:31.567Z,15.19
2024-03-15T02:54:58.233Z,15.05
2024-03-15T02:57:25.044Z,15.15
2024-03-15T02:59:51.681Z,15.05
2024-03-15T03:02:18.091Z,15.17
2024-03-15T03:04:44.493Z,15.04
2024-03-15T03:07:10.930Z,15.12
2024-03-15T03:09:37.364Z,15.20
2024-03-15T03:12:03.890Z,15.17
2024-03-15T03:14:30.330Z,14.99
2024-03-15T03:16:56.740Z,15.14
2024-03-15T03:19:23.159Z,14.95
2024-03-15T03:21:49.655Z,15.07
2024-03-15T03:24:16.296Z,15.09
2024-03-15T03:26:42.931Z,15.10
2024-03-15T03:29:09.331Z,15.00
2024-03-15T03:31:35.755Z,15.12
2024-03-15T03:34:02.203Z,15.11
2024-03-15T03:36:28.713Z,15.09
2024-03-15T03:38:55.135Z,14.95
2024-03-15T03:41:21.551Z,15.19
2024-03-15T03:43:48.018Z,15.11
2024-03-15T03:46:14.501Z,15.11
2024-03-15T03:48:41.011Z,15.11
2024-03-15T03:51:07.538Z,15.07
2024-03-15T03:53:33.954Z,14.99
2024-03-15T03:56:00.407Z,15.06
2024-03-15T03:58:26.866Z,14.91
2024-03-15T04:00:53.605Z,14.95
2024-03-15T04:03:20.350Z,15.17
2024-03-15T04:05:46.935Z,15.18
2024-03-15T04:08:13.660Z,15.08
2024-03-15T04:10:40.240Z,15.14
2024-03-15T04:13:06.791Z,15.09
2024-03-15T04:15:33.388Z,15.20
2024-03-15T04:18:00.628Z,15.21
2024-03-15T04:20:28.420Z,15.03
2024-03-15T04:22:55.518Z,15.10
2024-03-15T04:25:22.110Z,14.98
2024-03-15T04:27:48.845Z,15.00
2024-03-15T04:30:15.906Z,15.14
2024-03-15T04:32:42.566Z,15.11
2024-03-15T04:35:09.136Z,14.88
2024-03-15T04:37:35.724Z,14.95
2024-03-15T04:40:02.371Z,14.93
2024-03-15T04:42:28.939Z,14.96
2024-03-15T04:44:55.577Z,14.98
2024-03-15T04:47:23.932Z,14.98
2024-03-15T04:49:50.988Z,14.89
2024-03-15T04:52:17.583Z,14.90
2024-03-15T04:54:44.219Z,14.80
2024-03-15T04:57:10.878Z,14.83
2024-03-15T04:59:37.496Z,14.87
2024-03-15T05:02:04.060Z,14.72
2024-03-15T05:04:30.643Z,14.63
2024-03-15T05:06:57.240Z,14.62
2024-03-15T05:09:23.943Z,14.56
2024-03-15T05:11:50.530Z,14.74
2024-03-15T05:14:17.131Z,14.72
2024-03-15T05:16:43.683Z,14.69
2024-03-15T05:19:10.508Z,14.68
2024-03-15T05:21:37.095Z,14.63
2024-03-15T05:24:03.697Z,14.65
2024-03-15T05:26:30.970Z,14.70
2024-03-15T05:28:57.546Z,14.74
2024-03-15T05:31:24.146Z,14.58
2024-03-15T05:33:50.752Z,14.67
2024-03-15T05:36:17.451Z,14.70
2024-03-15T05:38:44.050Z,14.66
2024-03-15T05:41:10.622Z,14.62
2024-03-15T05:43:37.203Z,14.71
2024-03-15T05:46:03.825Z,14.68
2024-03-15T05:48:30.489Z,14.55
2024-03-15T05:50:57.111Z,14.68
2024-03-15T05:53:23.697Z,14.59
2024-03-15T05:55:50.258Z,14.47
2024-03-15T05:58:16.829Z,14.65
2024-03-15T06:00:43.477Z,14.66
2024-03-15T06:03:10.068Z,14.73
2024-03-15T06:05:36.649Z,14.46
2024-03-15T06:08:03.465Z,14.56
2024-03-15T06:10:30.096Z,14.54
2024-03-15T06:12:56.781Z,14.53
2024-03-15T06:15:23.444Z,14.49
2024-03-15T06:17:50.157Z,14.56
2024-03-15T06:20:16.759Z,14.52
2024-03-15T06:22:43.632Z,14.56
2024-03-15T06:25:10.309Z,14.41
2024-03-15T06:27:37.010Z,14.54
2024-03-15T06:30:03.675Z,14.61
2024-03-15T06:32:30.374Z,14.32
2024-03-15T06:34:57.050Z,14.47
2024-03-15T06:37:23.660Z,14.60
2024-03-15T06:39:50.326Z,14.64
2024-03-15T06:42:17.099Z,14.63
2024-03-15T06:44:43.718Z,14.65
2024-03-15T06:47:10.293Z,14.64
2024-03-15T06:49:36.874Z,14.54
2024-03-15T06:52:03.426Z,14.63
2024-03-15T06:54:30.008Z,14.65
2024-03-15T06:56:56.628Z,14.69
2024-03-15T06:59:23.248Z,14.64
2024-03-15T07:01:49.862Z,14.78
2024-03-15T07:04:16.491Z,14.74
2024-03-15T07:06:43.094Z,15.00
2024-03-15T07:09:09.735Z,15.01
2024-03-15T07:11:36.514Z,15.07
2024-03-15T07:14:03.134Z,15.22
2024-03-15T07:16:29.756Z,15.27
2024-03-15T07:18:56.598Z,15.25
2024-03-15T07:21:23.406Z,15.02
2024-03-15T07:23:50.072Z,15.11
2024-03-15T07:26:16.719Z,15.33
2024-03-15T07:28:43.408Z,15.33
2024-03-15T07:31:10.128Z,15.39
2024-03-15T07:33:36.939Z,15.46
2024-03-15T07:36:03.582Z,15.52
2024-03-15T07:38:30.165Z,15.49
2024-03-15T07:40:56.795Z,15.51
2024-03-15T07:43:23.394Z,15.71
2024-03-15T07:45:50.033Z,15.81
2024-03-15T07:48:16.847Z,15.87
2024-03-15T07:50:43.485Z,15.61
2024-03-15T07:53:10.141Z,15.83
2024-03-15T07:55:36.735Z,15.89
2024-03-15T07:58:03.366Z,16.05
2024-03-15T08:00:30.150Z,15.95
2024-03-15T08:02:56.793Z,16.12
2024-03-15T08:05:23.408Z,16.09
2024-03-15T08:07:50.029Z,16.07
2024-03-15T08:10:16.852Z,16.10
2024-03-15T08:12:43.520Z,16.02
2024-03-15T08:15:10.121Z,16.05
2024-03-15T08:17:36.756Z,16.08
2024-03-15T08:20:03.442Z,16.16
2024-03-15T08:22:30.197Z,16.22
2024-03-15T08:24:56.815Z,16.35
2024-03-15T08:27:23.432Z,16.52
2024-03-15T08:29:50.137Z,16.45
2024-03-15T08:32:16.779Z,16.37
2024-03-15T08:34:43.439Z,16.54
2024-03-15T08:37:10.233Z,16.38
2024-03-15T08:39:37.052Z,16.38
2024-03-15T08:42:03.717Z,16.25
2024-03-15T08:44:30.354Z,16.02
2024-03-15T08:46:56.944Z,16.19
2024-03-15T08:49:23.783Z,16.03
2024-03-15T08:51:50.705Z,15.89
2024-03-15T08:54:17.383Z,16.00
2024-03-15T08:56:44.365Z,15.91
2024-03-15T08:59:10.928Z,15.62
2024-03-15T09:01:37.594Z,15.59
2024-03-15T09:04:04.282Z,15.63
2024-03-15T09:06:30.877Z,15.73
2024-03-15T09:08:57.469Z,15.63
2024-03-15T09:11:24.192Z,15.77
2024-03-15T09:13:50.885Z,15.93
2024-03-15T09:16:17.534Z,16.19
2024-03-15T09:18:44.174Z,15.98
2024-03-15T09:21:10.945Z,16.19
2024-03-15T09:23:37.590Z,16.19
2024-03-15T09:26:04.159Z,16.36
2024-03-15T09:28:30.786Z,16.54
2024-03-15T09:31:04.236Z,16.46
2024-03-15T09:33:37.401Z,16.82
2024-03-15T09:36:04.109Z,16.85
2024-03-15T09:38:30.710Z,16.64
2024-03-15T09:40:57.352Z,16.91
2024-03-15T09:43:23.952Z,16.95
2024-03-15T09:45:50.590Z,17.12
2024-03-15T09:48:17.283Z,17.31
2024-03-15T09:50:43.893Z,17.62
2024-03-15T09:53:10.465Z,18.00
2024-03-15T09:55:37.038Z,18.19
2024-03-15T09:58:03.698Z,18.24
2024-03-15T10:00:30.454Z,18.05
2024-03-15T10:02:57.074Z,18.58
2024-03-15T10:05:23.748Z,18.23
2024-03-15T10:07:50.401Z,18.44
2024-03-15T10:10:17.028Z,18.42
2024-03-15T10:12:43.730Z,18.53
2024-03-15T10:15:10.510Z,18.88
2024-03-15T10:17:37.147Z,18.89
2024-03-15T10:20:03.844Z,18.91
2024-03-15T10:22:30.495Z,19.02
2024-03-15T10:24:57.141Z,18.88
2024-03-15T10:27:23.836Z,18.84
2024-03-15T10:29:50.460Z,18.75
2024-03-15T10:32:17.014Z,18.58
2024-03-15T10:34:43.646Z,18.38
2024-03-15T10:37:10.269Z,18.14
2024-03-15T10:39:36.918Z,18.23
2024-03-15T10:42:04.585Z,18.13
2024-03-15T10:44:31.197Z,18.17
2024-03-15T10:46:57.793Z,18.11
2024-03-15T10:49:24.489Z,18.13
2024-03-15T10:51:51.263Z,18.11
2024-03-15T10:54:17.958Z,18.23
2024-03-15T10:56:44.518Z,18.17
2024-03-15T10:59:11.135Z,18.31
2024-03-15T11:01:37.794Z,18.56
2024-03-15T11:04:04.646Z,18.54
2024-03-15T11:06:31.366Z,18.50
2024-03-15T11:08:57.996Z,18.52
2024-03-15T11:11:24.639Z,18.50
2024-03-15T11:13:51.587Z,18.63
2024-03-15T11:16:18.253Z,18.68
2024-03-15T11:18:44.950Z,18.42
2024-03-15T11:21:11.800Z,18.30
2024-03-15T11:23:38.735Z,18.22
2024-03-15T11:26:05.425Z,18.17
2024-03-15T11:28:32.058Z,18.19
2024-03-15T11:30:58.720Z,18.04
2024-03-15T11:33:25.542Z,17.92
2024-03-15T11:35:52.521Z,17.95
2024-03-15T11:38:19.238Z,17.93
2024-03-15T11:40:45.804Z,17.83
2024-03-15T11:43:13.788Z,17.74
2024-03-15T11:45:41.014Z,17.79
2024-03-15T11:48:07.727Z,17.80
2024-03-15T11:50:34.346Z,17.76
2024-03-15T11:53:00.913Z,17.74
2024-03-15T11:55:27.505Z,17.65
2024-03-15T11:57:54.237Z,17.60
2024-03-15T12:00:20.975Z,17.38
2024-03-15T12:02:47.729Z,17.33
2024-03-15T12:05:14.378Z,17.28
2024-03-15T12:07:41.016Z,17.15
2024-03-15T12:10:07.707Z,17.34
2024-03-15T12:12:34.375Z,17.30
2024-03-15T12:15:00.969Z,16.77
2024-03-15T12:17:27.610Z,16.95
2024-03-15T12:19:54.263Z,17.01
2024-03-15T12:22:20.846Z,16.86
2024-03-15T12:24:47.454Z,16.96
2024-03-15T12:27:14.109Z,16.97
2024-03-15T12:29:40.742Z,16.92
2024-03-15T12:32:07.303Z,16.84
2024-03-15T12:34:33.872Z,16.75
2024-03-15T12:37:00.569Z,16.70
2024-03-15T12:39:27.258Z,16.92
2024-03-15T12:41:53.876Z,16.72
2024-03-15T12:44:20.444Z,16.54
2024-03-15T12:46:47.025Z,16.46
2024-03-15T12:49:13.693Z,16.50
2024-03-15T12:51:40.331Z,16.60
2024-03-15T12:54:06.942Z,16.55
2024-03-15T12:56:33.525Z,16.84
2024-03-15T12:59:00.108Z,16.87
2024-03-15T13:01:26.830Z,17.11
2024-03-15T13:03:53.706Z,17.10
2024-03-15T13:06:20.332Z,16.97
2024-03-15T13:08:46.969Z,17.05
2024-03-15T13:11:13.706Z,17.02
2024-03-15T13:13:40.738Z,16.96
2024-03-15T13:16:07.370Z,17.02
2024-03-15T13:18:34.164Z,17.15
2024-03-15T13:21:00.791Z,17.28
2024-03-15T13:23:27.376Z,17.14
2024-03-15T13:25:54.160Z,17.22
2024-03-15T13:28:20.786Z,17.14
2024-03-15T13:30:47.415Z,17.32
2024-03-15T13:33:14.228Z,17.11
2024-03-15T13:35:40.996Z,17.30
2024-03-15T13:38:08.190Z,17.23
2024-03-15T13:40:35.690Z,17.13
2024-03-15T13:43:02.321Z,17.21
2024-03-15T13:45:29.032Z,17.12
2024-03-15T13:47:56.516Z,17.25
2024-03-15T13:50:23.294Z,17.22
2024-03-15T13:52:49.901Z,17.36
2024-03-15T13:55:16.772Z,17.33
2024-03-15T13:57:43.471Z,17.46
2024-03-15T14:00:10.195Z,17.57
2024-03-15T14:02:36.786Z,17.48
2024-03-15T14:05:03.386Z,17.78
2024-03-15T14:07:29.964Z,17.56
2024-03-15T14:09:56.642Z,17.62
2024-03-15T14:12:23.315Z,17.44
2024-03-15T14:14:49.905Z,17.65
2024-03-15T14:17:16.481Z,17.54
2024-03-15T14:19:43.054Z,17.21
2024-03-15T14:22:09.658Z,17.26
2024-03-15T14:24:36.238Z,16.97
2024-03-15T14:27:02.896Z,16.92
2024-03-15T14:29:29.487Z,17.14
2024-03-15T14:31:56.056Z,16.51
2024-03-15T14:34:24.851Z,16.03
2024-03-15T14:36:53.551Z,16.03
2024-03-15T14:39:20.130Z,15.98
2024-03-15T14:41:46.760Z,16.01
2024-03-15T14:44:13.317Z,16.04
2024-03-15T14:46:39.928Z,16.05
2024-03-15T14:49:06.569Z,16.27
2024-03-15T14:51:33.216Z,16.09
2024-03-15T14:53:59.823Z,16.36
2024-03-15T14:56:26.425Z,16.26
2024-03-15T14:58:52.997Z,16.26
2024-03-15T15:01:19.586Z,16.42
2024-03-15T15:03:46.351Z,16.37
2024-03-15T15:06:13.119Z,16.51
2024-03-15T15:08:41.527Z,16.44
2024-03-15T15:11:08.417Z,16.43
2024-03-15T15:13:35.062Z,16.36
2024-03-15T15:16:01.754Z,16.44
2024-03-15T15:18:28.452Z,16.29
2024-03-15T15:20:55.101Z,16.00
2024-03-15T15:23:21.674Z,16.33
2024-03-15T15:25:48.371Z,16.46
2024-03-15T15:28:15.046Z,16.36
2024-03-15T15:30:41.745Z,15.53
2024-03-15T15:33:08.451Z,15.83
2024-03-15T15:35:35.040Z,15.92
2024-03-15T15:38:01.737Z,15.61
2024-03-15T15:40:31.180Z,15.59
2024-03-15T15:42:59.033Z,15.57
2024-03-15T15:45:25.824Z,15.45
2024-03-15T15:47:52.379Z,15.67
2024-03-15T15:50:19.715Z,15.70
2024-03-15T15:52:46.552Z,15.95
2024-03-15T15:55:13.147Z,16.05
2024-03-15T15:57:39.644Z,16.13
2024-03-15T16:00:06.065Z,16.27
2024-03-15T16:02:32.498Z,16.26
2024-03-15T16:04:58.927Z,16.36
2024-03-15T16:07:25.385Z,16.28
2024-03-15T16:09:51.947Z,16.26
2024-03-15T16:12:18.432Z,16.35
2024-03-15T16:14:44.845Z,16.35
2024-03-15T16:17:11.252Z,16.27
2024-03-15T16:19:37.694Z,16.31
2024-03-15T16:22:04.217Z,16.27
2024-03-15T16:24:30.731Z,16.45
2024-03-15T16:26:57.150Z,16.08
2024-03-15T16:29:23.573Z,16.43
2024-03-15T16:31:49.988Z,16.45
2024-03-15T16:34:16.391Z,16.49
2024-03-15T16:36:42.970Z,16.73
2024-03-15T16:39:09.493Z,16.75
2024-03-15T16:41:35.898Z,16.76
2024-03-15T16:44:02.302Z,16.80
2024-03-15T16:46:28.910Z,16.81
2024-03-15T16:48:55.532Z,16.82
2024-03-15T16:51:22.172Z,16.87
2024-03-15T16:53:48.799Z,16.83
2024-03-15T16:56:15.390Z,16.87
2024-03-15T16:58:41.944Z,16.69
2024-03-15T17:01:08.637Z,16.71
2024-03-15T17:03:35.270Z,16.56
2024-03-15T17:06:01.844Z,16.59
2024-03-15T17:08:28.405Z,16.81
2024-03-15T17:10:55.060Z,16.89
2024-03-15T17:13:21.630Z,16.78
2024-03-15T17:15:48.217Z,16.65
2024-03-15T17:18:14.861Z,16.69
2024-03-15T17:20:41.427Z,16.55
2024-03-15T17:23:07.988Z,16.47
2024-03-15T17:25:34.567Z,16.54
2024-03-15T17:28:01.213Z,16.39
2024-03-15T17:30:27.865Z,16.54
2024-03-15T17:32:54.508Z,16.43
2024-03-15T17:35:21.139Z,16.49
2024-03-15T17:37:47.770Z,16.36
2024-03-15T17:40:14.406Z,16.29
2024-03-15T17:42:41.013Z,16.46
2024-03-15T17:45:07.596Z,16.41
2024-03-15T17:47:34.223Z,16.47
2024-03-15T17:50:00.808Z,16.31
2024-03-15T17:52:27.377Z,16.37
2024-03-15T17:54:54.121Z,16.33
2024-03-15T17:57:20.746Z,16.33
2024-03-15T17:59:47.382Z,16.32
2024-03-15T18:02:14.080Z,16.24
2024-03-15T18:04:40.690Z,16.25
2024-03-15T18:07:07.345Z,16.36
2024-03-15T18:09:33.963Z,16.31
2024-03-15T18:12:00.580Z,16.14
2024-03-15T18:14:27.142Z,16.31
2024-03-15T18:16:53.716Z,16.12
2024-03-15T18:19:20.326Z,16.37
2024-03-15T18:21:46.902Z,16.16
2024-03-15T18:24:13.481Z,16.10
2024-03-15T18:26:40.036Z,16.09
2024-03-15T18:29:06.627Z,15.95
2024-03-15T18:31:33.022Z,15.95
2024-03-15T18:33:59.478Z,16.01
2024-03-15T18:36:26.003Z,15.55
2024-03-15T18:38:52.624Z,15.69
2024-03-15T18:41:19.011Z,15.36
2024-03-15T18:43:45.430Z,15.57
2024-03-15T18:46:11.877Z,15.49
2024-03-15T18:48:38.504Z,15.57
2024-03-15T18:51:05.073Z,15.42
2024-03-15T18:53:32.188Z,15.48
2024-03-15T18:55:58.669Z,15.50
2024-03-15T18:58:25.124Z,15.45
2024-03-15T19:00:51.628Z,15.31
2024-03-15T19:03:18.176Z,15.40
2024-03-15T19:05:44.661Z,15.33
2024-03-15T19:08:11.077Z,15.65
2024-03-15T19:10:37.500Z,15.25
2024-03-15T19:13:04.053Z,15.16
2024-03-15T19:15:30.618Z,15.29
2024-03-15T19:17:57.225Z,15.26
2024-03-15T19:20:23.756Z,15.46
2024-03-15T19:22:52.680Z,15.40
2024-03-15T19:25:19.089Z,15.40
2024-03-15T19:27:45.555Z,15.43
2024-03-15T19:30:12.167Z,15.63
2024-03-15T19:32:38.807Z,15.57
2024-03-15T19:35:05.386Z,15.39
2024-03-15T19:37:32.006Z,15.40
2024-03-15T19:39:58.629Z,15.48
2024-03-15T19:42:25.245Z,15.26
2024-03-15T19:44:51.841Z,15.39
2024-03-15T19:47:18.437Z,15.41
2024-03-15T19:49:45.018Z,15.60
2024-03-15T19:52:11.679Z,15.51
2024-03-15T19:54:38.295Z,15.57
2024-03-15T19:57:05.179Z,15.54
2024-03-15T19:59:31.970Z,15.51
2024-03-15T20:01:58.982Z,15.38
2024-03-15T20:04:27.306Z,15.53
2024-03-15T20:06:54.604Z,15.33
2024-03-15T20:09:21.334Z,15.37
2024-03-15T20:11:47.923Z,15.44
2024-03-15T20:14:14.493Z,15.25
2024-03-15T20:16:41.159Z,15.15
2024-03-15T20:19:07.762Z,15.20
2024-03-15T20:21:34.405Z,15.39
2024-03-15T20:24:01.012Z,15.19
2024-03-15T20:26:27.590Z,15.02
2024-03-15T20:28:54.174Z,15.03
2024-03-15T20:31:20.805Z,15.13
2024-03-15T20:33:47.451Z,15.03
2024-03-15T20:36:14.125Z,15.03
2024-03-15T20:38:40.683Z,15.07
2024-03-15T20:41:07.275Z,15.22
2024-03-15T20:43:33.873Z,15.14
2024-03-15T20:46:00.514Z,15.13
2024-03-15T20:48:27.160Z,15.28
2024-03-15T20:50:53.759Z,15.06
2024-03-15T20:53:20.334Z,15.18
2024-03-15T20:55:46.891Z,15.23
2024-03-15T20:58:13.550Z,15.23
2024-03-15T21:00:40.212Z,14.98
2024-03-15T21:03:06.841Z,15.08
2024-03-15T21:05:33.431Z,15.16
2024-03-15T21:08:00.012Z,15.06
2024-03-15T21:10:26.586Z,15.06
2024-03-15T21:12:53.220Z,14.89
2024-03-15T21:15:19.850Z,14.95
2024-03-15T21:17:46.468Z,14.96
2024-03-15T21:20:13.092Z,14.81
2024-03-15T21:22:39.681Z,14.95
2024-03-15T21:25:06.343Z,14.94
2024-03-15T21:27:32.978Z,14.81
2024-03-15T21:29:59.614Z,14.80
2024-03-15T21:32:26.233Z,14.58
2024-03-15T21:34:52.845Z,14.75
2024-03-15T21:37:19.444Z,14.70
2024-03-15T21:39:46.114Z,14.50
2024-03-15T21:42:12.698Z,14.47
2024-03-15T21:44:39.268Z,14.63
2024-03-15T21:47:05.881Z,14.49
2024-03-15T21:49:32.469Z,14.49
2024-03-15T21:51:59.129Z,14.59
2024-03-15T21:54:25.783Z,14.62
2024-03-15T21:56:52.365Z,14.68
2024-03-15T21:59:18.950Z,14.65
2024-03-15T22:01:45.547Z,14.51
2024-03-15T22:04:12.169Z,14.55
2024-03-15T22:06:38.772Z,14.63
2024-03-15T22:09:05.345Z,14.69
2024-03-15T22:11:31.967Z,14.43
2024-03-15T22:13:58.553Z,14.46
2024-03-15T22:16:25.187Z,14.63
2024-03-15T22:18:51.821Z,14.50
2024-03-15T22:21:18.479Z,14.55
2024-03-15T22:23:45.044Z,14.56
2024-03-15T22:26:11.624Z,14.51
2024-03-15T22:28:38.202Z,14.36
2024-03-15T22:31:04.807Z,14.50
2024-03-15T22:33:31.433Z,14.46
2024-03-15T22:35:58.474Z,14.35
2024-03-15T22:38:25.086Z,14.42
2024-03-15T22:40:51.648Z,14.36
2024-03-15T22:43:18.254Z,14.34
2024-03-15T22:45:44.909Z,14.42
2024-03-15T22:48:11.603Z,14.42
2024-03-15T22:50:38.391Z,14.60
2024-03-15T22:53:04.967Z,14.47
2024-03-15T22:55:31.539Z,14.56
2024-03-15T22:57:58.145Z,14.67
2024-03-15T23:00:24.816Z,14.49
2024-03-15T23:02:51.400Z,14.46
2024-03-15T23:05:17.967Z,14.60
2024-03-15T23:07:44.537Z,14.40
2024-03-15T23:10:11.158Z,14.64
2024-03-15T23:12:37.818Z,14.62
2024-03-15T23:15:04.424Z,14.57
2024-03-15T23:17:30.995Z,14.60
2024-03-15T23:19:57.556Z,14.43
2024-03-15T23:22:24.126Z,14.33
2024-03-15T23:24:50.896Z,14.44
2024-03-15T23:27:17.548Z,14.19
2024-03-15T23:29:44.148Z,14.20
2024-03-15T23:32:10.701Z,14.38
2024-03-15T23:34:37.274Z,14.24
2024-03-15T23:37:03.965Z,13.99
2024-03-15T23:39:30.643Z,13.87
2024-03-15T23:41:57.209Z,13.73
2024-03-15T23:44:23.781Z,13.95
2024-03-15T23:46:50.341Z,13.83
2024-03-15T23:49:16.902Z,14.03
2024-03-15T23:51:43.493Z,13.87
2024-03-15T23:54:10.079Z,13.84
2024-03-15T23:56:36.697Z,13.87
2024-03-15T23:59:03.275Z,14.04
